Station Historical Data
Daily Summary for September 2, 2017 Units:  English    Metric   Both
« Previous Day
Next Day »
Daily Weekly Monthly Yearly Custom
  High: Low: Average:
Temperature: 71.6 °F 43.0 °F 58.1 °F
Dew Point: 53.6 °F 37.4 °F 45 °F
Humidity: 86% 32% 65%
Wind Speed: 10.0mph 0.0mph 2.1mph
Wind Gust: 14.0mph - -
Wind- - SE
Pressure: 30.22 in 29.96 in -
Precipitation: 0.00 in    
Historical Graphs
 
 
Tabular Data for September 2, 2017
Time Temperature Dew Point Pressure Wind Wind Speed Wind Gust Humidity Rainfall Rate (Hourly)
00:04 49.2 °F 43.3 °F 30.21 in Calm     80% 0.00 in
00:09 48.6 °F 43.0 °F 30.21 in Calm     81% 0.00 in
00:14 48.9 °F 43.3 °F 30.21 in Calm     81% 0.00 in
00:19 49.1 °F 43.5 °F 30.21 in Calm     81% 0.00 in
00:24 49.0 °F 43.4 °F 30.22 in Calm     81% 0.00 in
00:29 49.0 °F 43.4 °F 30.22 in Calm     81% 0.00 in
00:34 48.8 °F 43.2 °F 30.21 in Calm     81% 0.00 in
00:39 48.6 °F 43.0 °F 30.21 in Calm     81% 0.00 in
00:44 48.5 °F 42.9 °F 30.22 in Calm     81% 0.00 in
00:49 48.3 °F 43.1 °F 30.22 in Calm     82% 0.00 in
00:54 48.2 °F 43.0 °F 30.22 in Calm     82% 0.00 in
00:59 48.0 °F 42.8 °F 30.22 in Calm     82% 0.00 in
01:04 47.7 °F 42.5 °F 30.22 in Calm     82% 0.00 in
01:09 47.4 °F 42.5 °F 30.22 in Calm     83% 0.00 in
01:14 47.4 °F 42.5 °F 30.22 in Calm     83% 0.00 in
01:19 47.2 °F 42.3 °F 30.22 in Calm     83% 0.00 in
01:24 46.9 °F 42.3 °F 30.22 in Calm     84% 0.00 in
01:29 46.7 °F 42.1 °F 30.21 in Calm     84% 0.00 in
01:34 46.9 °F 42.6 °F 30.21 in Calm     85% 0.00 in
01:39 47.1 °F 42.8 °F 30.21 in Calm     85% 0.00 in
01:44 47.3 °F 42.7 °F 30.21 in Calm     84% 0.00 in
01:49 47.2 °F 42.6 °F 30.21 in Calm     84% 0.00 in
01:54 47.2 °F 42.6 °F 30.21 in Calm     84% 0.00 in
01:59 47.2 °F 42.6 °F 30.21 in Calm     84% 0.00 in
02:04 47.1 °F 42.5 °F 30.21 in Calm     84% 0.00 in
02:09 46.9 °F 42.3 °F 30.21 in Calm     84% 0.00 in
02:14 46.6 °F 42.0 °F 30.20 in Calm     84% 0.00 in
02:19 46.3 °F 41.7 °F 30.20 in Calm     84% 0.00 in
02:24 46.0 °F 41.7 °F 30.20 in Calm     85% 0.00 in
02:29 45.9 °F 41.6 °F 30.20 in Calm     85% 0.00 in
02:34 45.6 °F 41.7 °F 30.20 in Calm     86% 0.00 in
02:39 45.4 °F 41.5 °F 30.20 in Calm     86% 0.00 in
02:44 45.5 °F 41.6 °F 30.20 in Calm     86% 0.00 in
02:49 45.6 °F 41.7 °F 30.20 in Calm     86% 0.00 in
02:54 45.5 °F 41.6 °F 30.20 in Calm     86% 0.00 in
02:59 45.5 °F 41.6 °F 30.20 in Calm     86% 0.00 in
03:04 45.4 °F 41.5 °F 30.20 in Calm     86% 0.00 in
03:09 45.3 °F 41.4 °F 30.20 in Calm     86% 0.00 in
03:14 45.2 °F 41.3 °F 30.20 in Calm     86% 0.00 in
03:19 45.2 °F 41.3 °F 30.20 in Calm     86% 0.00 in
03:24 45.2 °F 41.3 °F 30.20 in Calm     86% 0.00 in
03:29 45.2 °F 41.3 °F 30.20 in Calm     86% 0.00 in
03:34 45.2 °F 41.0 °F 30.19 in Calm     85% 0.00 in
03:39 45.1 °F 40.9 °F 30.19 in Calm     85% 0.00 in
03:44 45.2 °F 41.0 °F 30.19 in Calm     85% 0.00 in
03:49 45.1 °F 40.9 °F 30.19 in Calm     85% 0.00 in
03:54 45.1 °F 40.9 °F 30.19 in Calm     85% 0.00 in
03:59 45.2 °F 40.7 °F 30.19 in Calm     84% 0.00 in
04:04 45.1 °F 40.6 °F 30.19 in Calm     84% 0.00 in
04:09 45.1 °F 40.6 °F 30.19 in Calm     84% 0.00 in
04:14 44.9 °F 40.4 °F 30.19 in Calm     84% 0.00 in
04:19 44.6 °F 40.1 °F 30.19 in Calm     84% 0.00 in
04:24 44.5 °F 40.3 °F 30.18 in Calm     85% 0.00 in
04:29 44.4 °F 40.2 °F 30.18 in Calm     85% 0.00 in
04:34 44.3 °F 40.1 °F 30.18 in Calm     85% 0.00 in
04:39 44.2 °F 40.0 °F 30.18 in Calm     85% 0.00 in
04:44 44.2 °F 40.0 °F 30.18 in Calm     85% 0.00 in
04:54 44.3 °F 40.1 °F 30.18 in Calm     85% 0.00 in
04:59 44.4 °F 39.9 °F 30.18 in Calm     84% 0.00 in
05:04 44.5 °F 40.0 °F 30.19 in Calm     84% 0.00 in
05:09 44.5 °F 40.0 °F 30.19 in Calm     84% 0.00 in
05:14 44.3 °F 39.8 °F 30.18 in Calm     84% 0.00 in
05:19 44.3 °F 39.8 °F 30.18 in Calm     84% 0.00 in
05:24 44.3 °F 39.8 °F 30.18 in Calm     84% 0.00 in
05:29 44.3 °F 39.8 °F 30.18 in Calm     84% 0.00 in
05:34 44.2 °F 39.7 °F 30.17 in Calm     84% 0.00 in
05:39 44.1 °F 39.6 °F 30.18 in Calm     84% 0.00 in
05:44 43.9 °F 39.4 °F 30.17 in Calm     84% 0.00 in
05:49 43.8 °F 39.3 °F 30.18 in Calm     84% 0.00 in
05:54 43.8 °F 39.0 °F 30.17 in Calm     83% 0.00 in
05:59 43.7 °F 38.9 °F 30.18 in Calm     83% 0.00 in
06:04 43.5 °F 38.7 °F 30.17 in Calm     83% 0.00 in
06:09 43.4 °F 38.6 °F 30.17 in Calm     83% 0.00 in
06:14 43.3 °F 38.5 °F 30.17 in Calm     83% 0.00 in
06:19 43.2 °F 38.4 °F 30.17 in Calm     83% 0.00 in
06:24 43.2 °F 38.7 °F 30.17 in Calm     84% 0.00 in
06:29 43.2 °F 38.4 °F 30.17 in Calm     83% 0.00 in
06:34 43.1 °F 38.3 °F 30.17 in Calm     83% 0.00 in
06:39 43.1 °F 38.3 °F 30.17 in Calm     83% 0.00 in
06:44 43.1 °F 38.3 °F 30.17 in Calm     83% 0.00 in
06:49 43.0 °F 38.2 °F 30.17 in Calm     83% 0.00 in
06:54 43.0 °F 38.2 °F 30.17 in Calm     83% 0.00 in
06:59 43.1 °F 38.3 °F 30.17 in Calm     83% 0.00 in
07:04 43.5 °F 38.7 °F 30.17 in Calm     83% 0.00 in
07:09 44.0 °F 38.9 °F 30.17 in Calm     82% 0.00 in
07:14 44.3 °F 38.8 °F 30.17 in Calm     81% 0.00 in
07:19 44.8 °F 39.0 °F 30.17 in Calm     80% 0.00 in
07:24 45.2 °F 39.1 °F 30.17 in Calm     79% 0.00 in
07:29 45.5 °F 39.4 °F 30.16 in Calm     79% 0.00 in
07:34 45.9 °F 39.4 °F 30.17 in Calm     78% 0.00 in
07:39 46.4 °F 39.6 °F 30.17 in Calm     77% 0.00 in
07:44 47.0 °F 39.8 °F 30.16 in Calm     76% 0.00 in
07:49 47.8 °F 40.3 °F 30.16 in Calm     75% 0.00 in
07:54 48.6 °F 40.7 °F 30.16 in ENE 1.0 mph 4.0 mph 74% 0.00 in
07:59 49.3 °F 41.0 °F 30.16 in ENE 1.0 mph 5.0 mph 73% 0.00 in
08:04 50.1 °F 41.1 °F 30.16 in ENE 1.0 mph 5.0 mph 71% 0.00 in
08:09 50.9 °F 41.8 °F 30.16 in Calm   5.0 mph 71% 0.00 in
08:14 51.6 °F 42.1 °F 30.16 in ESE 1.0 mph 5.0 mph 70% 0.00 in
08:19 52.6 °F 42.3 °F 30.16 in East 2.0 mph 6.0 mph 68% 0.00 in
08:24 53.2 °F 42.5 °F 30.16 in East 5.0 mph 7.0 mph 67% 0.00 in
08:29 53.8 °F 42.7 °F 30.16 in Calm   7.0 mph 66% 0.00 in
08:34 54.5 °F 42.6 °F 30.16 in East 5.0 mph 9.0 mph 64% 0.00 in
08:39 55.3 °F 43.3 °F 30.16 in East 2.0 mph 6.0 mph 64% 0.00 in
08:44 55.7 °F 42.9 °F 30.16 in East 1.0 mph 10.0 mph 62% 0.00 in
08:49 55.9 °F 42.6 °F 30.16 in East 5.0 mph 13.0 mph 61% 0.00 in
08:54 56.1 °F 42.8 °F 30.16 in East 5.0 mph 13.0 mph 61% 0.00 in
08:59 56.4 °F 43.1 °F 30.16 in East 4.0 mph 9.0 mph 61% 0.00 in
09:04 56.8 °F 43.5 °F 30.16 in East 3.0 mph 9.0 mph 61% 0.00 in
09:09 57.3 °F 44.0 °F 30.16 in ESE 3.0 mph 7.0 mph 61% 0.00 in
09:14 57.9 °F 43.7 °F 30.15 in East 7.0 mph 8.0 mph 59% 0.00 in
09:19 58.2 °F 43.9 °F 30.15 in East 5.0 mph 10.0 mph 59% 0.00 in
09:24 58.3 °F 43.6 °F 30.15 in East 3.0 mph 11.0 mph 58% 0.00 in
09:29 58.6 °F 42.9 °F 30.15 in ENE 5.0 mph 8.0 mph 56% 0.00 in
09:34 59.3 °F 43.6 °F 30.14 in ESE 3.0 mph 9.0 mph 56% 0.00 in
09:39 59.8 °F 43.1 °F 30.14 in East 3.0 mph 8.0 mph 54% 0.00 in
09:44 60.2 °F 42.5 °F 30.14 in East 8.0 mph 13.0 mph 52% 0.00 in
09:49 60.3 °F 43.1 °F 30.14 in East 5.0 mph 13.0 mph 53% 0.00 in
09:54 61.1 °F 43.8 °F 30.15 in East 5.0 mph 11.0 mph 53% 0.00 in
09:59 61.7 °F 42.9 °F 30.14 in East 4.0 mph 11.0 mph 50% 0.00 in
10:04 62.3 °F 43.4 °F 30.14 in East 4.0 mph 9.0 mph 50% 0.00 in
10:09 63.0 °F 44.1 °F 30.15 in East 3.0 mph 8.0 mph 50% 0.00 in
10:14 63.5 °F 43.4 °F 30.15 in ESE 2.0 mph 9.0 mph 48% 0.00 in
10:19 62.9 °F 42.4 °F 30.14 in ESE 2.0 mph 11.0 mph 47% 0.00 in
10:24 63.7 °F 41.4 °F 30.14 in ESE 4.0 mph 11.0 mph 44% 0.00 in
10:29 63.9 °F 41.5 °F 30.14 in SE 4.0 mph 9.0 mph 44% 0.00 in
10:34 64.1 °F 42.3 °F 30.14 in ESE 4.0 mph 9.0 mph 45% 0.00 in
10:39 64.4 °F 43.2 °F 30.14 in East 3.0 mph 6.0 mph 46% 0.00 in
10:44 65.3 °F 42.8 °F 30.14 in SE 3.0 mph 9.0 mph 44% 0.00 in
10:49 65.5 °F 41.8 °F 30.14 in East 10.0 mph 10.0 mph 42% 0.00 in
10:54 65.4 °F 41.1 °F 30.14 in SE 4.0 mph 11.0 mph 41% 0.00 in
10:59 65.2 °F 40.3 °F 30.14 in SE 5.0 mph 11.0 mph 40% 0.00 in
11:04 65.5 °F 41.2 °F 30.13 in East 3.0 mph 8.0 mph 41% 0.00 in
11:09 66.1 °F 40.4 °F 30.14 in ESE 4.0 mph 8.0 mph 39% 0.00 in
11:14 66.6 °F 40.9 °F 30.14 in SSE 3.0 mph 10.0 mph 39% 0.00 in
11:19 66.7 °F 40.9 °F 30.14 in NE 5.0 mph 9.0 mph 39% 0.00 in
11:24 66.9 °F 40.5 °F 30.13 in East 5.0 mph 9.0 mph 38% 0.00 in
11:29 67.5 °F 41.7 °F 30.13 in ESE 5.0 mph 9.0 mph 39% 0.00 in
11:34 68.0 °F 41.4 °F 30.13 in East 5.0 mph 13.0 mph 38% 0.00 in
11:39 68.4 °F 39.7 °F 30.13 in East 6.0 mph 13.0 mph 35% 0.00 in
11:44 68.7 °F 38.4 °F 30.13 in SSE 8.0 mph 9.0 mph 33% 0.00 in
11:49 68.4 °F 41.1 °F 30.12 in SE 4.0 mph 10.0 mph 37% 0.00 in
11:54 69.0 °F 40.9 °F 30.12 in ESE 5.0 mph 11.0 mph 36% 0.00 in
11:59 68.7 °F 39.2 °F 30.12 in ESE 5.0 mph 11.0 mph 34% 0.00 in
12:04 68.8 °F 40.7 °F 30.12 in ESE 6.0 mph 11.0 mph 36% 0.00 in
12:09 69.0 °F 38.7 °F 30.12 in ESE 6.0 mph 14.0 mph 33% 0.00 in
12:14 69.0 °F 38.7 °F 30.12 in SSE 8.0 mph 11.0 mph 33% 0.00 in
12:19 68.4 °F 37.4 °F 30.11 in SE 6.0 mph 12.0 mph 32% 0.00 in
12:24 68.8 °F 39.3 °F 30.11 in East 6.0 mph 11.0 mph 34% 0.00 in
12:29 67.9 °F 39.2 °F 30.11 in SE 8.0 mph 11.0 mph 35% 0.00 in
12:34 66.6 °F 38.8 °F 30.11 in SSE 6.0 mph 11.0 mph 36% 0.00 in
12:39 66.7 °F 40.3 °F 30.10 in SE 5.0 mph 11.0 mph 38% 0.00 in
12:44 66.9 °F 38.3 °F 30.10 in SE 4.0 mph 10.0 mph 35% 0.00 in
12:49 66.4 °F 38.6 °F 30.10 in ESE 4.0 mph 9.0 mph 36% 0.00 in
12:54 66.4 °F 38.6 °F 30.10 in South 2.0 mph 9.0 mph 36% 0.00 in
12:59 67.4 °F 40.9 °F 30.10 in SE 3.0 mph 9.0 mph 38% 0.00 in
13:04 68.3 °F 41.7 °F 30.10 in ESE 4.0 mph 9.0 mph 38% 0.00 in
13:09 68.0 °F 40.7 °F 30.09 in East 2.0 mph 9.0 mph 37% 0.00 in
13:14 68.4 °F 41.8 °F 30.09 in SE 3.0 mph 10.0 mph 38% 0.00 in
13:19 67.8 °F 41.3 °F 30.09 in SE 7.0 mph 10.0 mph 38% 0.00 in
13:24 67.6 °F 41.1 °F 30.09 in East 6.0 mph 8.0 mph 38% 0.00 in
13:29 67.7 °F 41.8 °F 30.09 in SE 6.0 mph 10.0 mph 39% 0.00 in
13:34 67.9 °F 41.3 °F 30.09 in East 4.0 mph 10.0 mph 38% 0.00 in
13:39 68.4 °F 42.5 °F 30.08 in East 5.0 mph 10.0 mph 39% 0.00 in
13:44 68.8 °F 43.5 °F 30.08 in ESE 4.0 mph 9.0 mph 40% 0.00 in
13:49 68.9 °F 42.2 °F 30.08 in ESE 3.0 mph 9.0 mph 38% 0.00 in
13:54 70.3 °F 44.2 °F 30.08 in ESE 3.0 mph 11.0 mph 39% 0.00 in
13:59 70.8 °F 45.3 °F 30.07 in ESE 3.0 mph 11.0 mph 40% 0.00 in
14:04 71.3 °F 44.4 °F 30.07 in East 3.0 mph 13.0 mph 38% 0.00 in
14:09 71.4 °F 44.5 °F 30.07 in East 4.0 mph 13.0 mph 38% 0.00 in
14:14 71.6 °F 44.6 °F 30.07 in East 9.0 mph 9.0 mph 38% 0.00 in
14:19 70.6 °F 45.1 °F 30.07 in ENE 5.0 mph 9.0 mph 40% 0.00 in
14:24 71.4 °F 47.1 °F 30.07 in East 3.0 mph 7.0 mph 42% 0.00 in
14:29 70.6 °F 44.4 °F 30.06 in ENE 2.0 mph 8.0 mph 39% 0.00 in
14:34 70.5 °F 45.0 °F 30.06 in NE 3.0 mph 8.0 mph 40% 0.00 in
14:39 69.8 °F 45.0 °F 30.06 in ENE 4.0 mph 9.0 mph 41% 0.00 in
14:44 69.2 °F 45.1 °F 30.06 in ENE 3.0 mph 9.0 mph 42% 0.00 in
14:49 69.9 °F 45.1 °F 30.05 in ENE 3.0 mph 10.0 mph 41% 0.00 in
14:54 69.6 °F 44.8 °F 30.05 in ENE 3.0 mph 11.0 mph 41% 0.00 in
14:59 69.8 °F 46.9 °F 30.05 in ENE 4.0 mph 11.0 mph 44% 0.00 in
15:04 71.1 °F 47.5 °F 30.05 in ENE 4.0 mph 10.0 mph 43% 0.00 in
15:09 71.3 °F 47.0 °F 30.05 in SSE 1.0 mph 11.0 mph 42% 0.00 in
15:14 71.2 °F 47.6 °F 30.04 in East 4.0 mph 11.0 mph 43% 0.00 in
15:19 70.6 °F 47.0 °F 30.04 in NNE 3.0 mph 10.0 mph 43% 0.00 in
15:24 71.1 °F 48.1 °F 30.04 in ENE 3.0 mph 8.0 mph 44% 0.00 in
15:29 71.2 °F 48.2 °F 30.03 in NE 5.0 mph 7.0 mph 44% 0.00 in
15:34 70.3 °F 47.9 °F 30.03 in East 3.0 mph 11.0 mph 45% 0.00 in
15:39 70.3 °F 47.9 °F 30.03 in SE 4.0 mph 8.0 mph 45% 0.00 in
15:44 70.3 °F 49.7 °F 30.03 in ENE 3.0 mph 8.0 mph 48% 0.00 in
15:49 69.8 °F 48.1 °F 30.03 in ENE 4.0 mph 11.0 mph 46% 0.00 in
15:54 69.4 °F 49.4 °F 30.03 in ENE 4.0 mph 11.0 mph 49% 0.00 in
15:59 69.1 °F 49.1 °F 30.03 in ENE 3.0 mph 8.0 mph 49% 0.00 in
16:04 69.3 °F 49.3 °F 30.03 in ENE 3.0 mph 8.0 mph 49% 0.00 in
16:09 69.2 °F 48.7 °F 30.03 in NE 1.0 mph 7.0 mph 48% 0.00 in
16:14 69.2 °F 49.2 °F 30.03 in ENE 3.0 mph 6.0 mph 49% 0.00 in
16:19 69.2 °F 49.8 °F 30.03 in SSE 2.0 mph 9.0 mph 50% 0.00 in
16:24 68.8 °F 49.9 °F 30.03 in South 6.0 mph 7.0 mph 51% 0.00 in
16:29 68.0 °F 52.2 °F 30.03 in SSE 8.0 mph 11.0 mph 57% 0.00 in
16:34 65.5 °F 53.0 °F 30.03 in South 2.0 mph 10.0 mph 64% 0.00 in
16:39 64.3 °F 53.1 °F 30.03 in Calm   9.0 mph 67% 0.00 in
16:44 64.4 °F 53.6 °F 30.03 in SSE 2.0 mph 7.0 mph 68% 0.00 in
16:49 64.6 °F 53.0 °F 30.03 in South 2.0 mph 7.0 mph 66% 0.00 in
16:54 64.9 °F 52.8 °F 30.02 in SSE 2.0 mph 6.0 mph 65% 0.00 in
16:59 65.0 °F 52.1 °F 30.02 in SSE 2.0 mph 5.0 mph 63% 0.00 in
17:04 65.3 °F 51.5 °F 30.02 in SE 2.0 mph 5.0 mph 61% 0.00 in
17:09 65.6 °F 50.9 °F 30.02 in SSE 2.0 mph 6.0 mph 59% 0.00 in
17:14 65.6 °F 50.4 °F 30.02 in SSE 3.0 mph 6.0 mph 58% 0.00 in
17:19 65.6 °F 50.9 °F 30.02 in SE 2.0 mph 7.0 mph 59% 0.00 in
17:24 65.6 °F 50.0 °F 30.02 in SSE 2.0 mph 6.0 mph 57% 0.00 in
17:29 65.5 °F 50.3 °F 30.02 in SE 3.0 mph 5.0 mph 58% 0.00 in
17:34 65.3 °F 49.2 °F 30.02 in SSE 4.0 mph 7.0 mph 56% 0.00 in
17:39 65.1 °F 49.0 °F 30.02 in South 2.0 mph 5.0 mph 56% 0.00 in
17:44 65.3 °F 49.2 °F 30.02 in South 1.0 mph 6.0 mph 56% 0.00 in
17:49 65.4 °F 49.3 °F 30.02 in SSE 2.0 mph 6.0 mph 56% 0.00 in
17:54 65.5 °F 48.9 °F 30.01 in SE 2.0 mph 6.0 mph 55% 0.00 in
17:59 65.6 °F 49.0 °F 30.01 in SE 2.0 mph 5.0 mph 55% 0.00 in
18:04 65.6 °F 49.0 °F 30.01 in SE 2.0 mph 4.0 mph 55% 0.00 in
18:09 65.5 °F 48.9 °F 30.01 in SE 2.0 mph 4.0 mph 55% 0.00 in
18:14 65.4 °F 49.3 °F 30.01 in Calm   3.0 mph 56% 0.00 in
18:19 65.2 °F 50.0 °F 30.01 in Calm   4.0 mph 58% 0.00 in
18:24 65.1 °F 50.0 °F 30.01 in SSE 1.0 mph 4.0 mph 58% 0.00 in
18:29 65.1 °F 50.0 °F 30.01 in South 1.0 mph 4.0 mph 58% 0.00 in
18:34 65.1 °F 50.4 °F 30.01 in South 1.0 mph 4.0 mph 59% 0.00 in
18:39 65.2 °F 50.5 °F 30.01 in South 1.0 mph 4.0 mph 59% 0.00 in
18:44 65.2 °F 51.0 °F 30.01 in SSE 2.0 mph 5.0 mph 60% 0.00 in
18:49 65.2 °F 51.4 °F 30.01 in SSW 2.0 mph 6.0 mph 61% 0.00 in
18:54 65.1 °F 51.3 °F 30.01 in South 3.0 mph 6.0 mph 61% 0.00 in
18:59 65.0 °F 51.7 °F 30.01 in South 2.0 mph 4.0 mph 62% 0.00 in
19:04 65.1 °F 51.8 °F 30.00 in Calm   2.0 mph 62% 0.00 in
19:09 65.0 °F 52.1 °F 30.00 in SSW 2.0 mph 6.0 mph 63% 0.00 in
19:14 64.9 °F 51.6 °F 30.00 in SSW 5.0 mph 7.0 mph 62% 0.00 in
19:19 64.6 °F 51.3 °F 30.00 in SSE 4.0 mph 8.0 mph 62% 0.00 in
19:24 64.5 °F 51.6 °F 30.00 in Calm   6.0 mph 63% 0.00 in
19:29 64.5 °F 51.6 °F 30.00 in SSE 4.0 mph 9.0 mph 63% 0.00 in
19:34 64.3 °F 51.9 °F 30.00 in SSE 4.0 mph 9.0 mph 64% 0.00 in
19:39 64.2 °F 51.8 °F 30.00 in South 3.0 mph 9.0 mph 64% 0.00 in
19:44 64.0 °F 52.0 °F 30.00 in South 2.0 mph 9.0 mph 65% 0.00 in
19:49 63.6 °F 52.0 °F 30.00 in South 4.0 mph 7.0 mph 66% 0.00 in
19:54 63.4 °F 51.8 °F 30.00 in SE 4.0 mph 7.0 mph 66% 0.00 in
19:59 63.2 °F 51.6 °F 30.00 in South 2.0 mph 8.0 mph 66% 0.00 in
20:04 63.1 °F 52.0 °F 30.00 in South 3.0 mph 8.0 mph 67% 0.00 in
20:09 62.9 °F 51.8 °F 30.00 in South 3.0 mph 7.0 mph 67% 0.00 in
20:14 62.8 °F 52.1 °F 29.99 in South 3.0 mph 8.0 mph 68% 0.00 in
20:19 62.8 °F 51.7 °F 30.00 in SE 5.0 mph 9.0 mph 67% 0.00 in
20:24 62.5 °F 51.4 °F 30.00 in SSE 1.0 mph 11.0 mph 67% 0.00 in
20:29 62.3 °F 51.6 °F 30.00 in SE 5.0 mph 10.0 mph 68% 0.00 in
20:34 62.1 °F 51.4 °F 30.00 in SSE 4.0 mph 10.0 mph 68% 0.00 in
20:39 62.0 °F 51.3 °F 29.99 in SSE 4.0 mph 10.0 mph 68% 0.00 in
20:44 61.9 °F 51.6 °F 29.99 in SSE 4.0 mph 9.0 mph 69% 0.00 in
20:49 61.8 °F 51.5 °F 29.99 in SSE 3.0 mph 9.0 mph 69% 0.00 in
20:54 61.8 °F 51.5 °F 29.99 in SE 3.0 mph 8.0 mph 69% 0.00 in
20:59 61.7 °F 51.4 °F 29.99 in ESE 3.0 mph 7.0 mph 69% 0.00 in
21:04 61.7 °F 51.8 °F 29.99 in SE 3.0 mph 7.0 mph 70% 0.00 in
21:09 61.6 °F 51.3 °F 29.99 in SE 3.0 mph 7.0 mph 69% 0.00 in
21:14 61.5 °F 51.2 °F 29.99 in SE 5.0 mph 5.0 mph 69% 0.00 in
21:19 61.4 °F 51.5 °F 29.99 in SE 3.0 mph 8.0 mph 70% 0.00 in
21:24 61.4 °F 51.5 °F 29.99 in SSE 3.0 mph 5.0 mph 70% 0.00 in
21:29 61.4 °F 51.5 °F 29.99 in SSE 3.0 mph 5.0 mph 70% 0.00 in
21:34 61.4 °F 51.5 °F 29.99 in Calm   5.0 mph 70% 0.00 in
21:39 61.4 °F 51.5 °F 29.99 in SSE 3.0 mph 8.0 mph 70% 0.00 in
21:44 61.2 °F 51.3 °F 29.99 in SSE 3.0 mph 8.0 mph 70% 0.00 in
21:49 61.2 °F 51.7 °F 29.99 in SSE 2.0 mph 5.0 mph 71% 0.00 in
21:54 61.2 °F 51.7 °F 29.99 in SSE 1.0 mph 5.0 mph 71% 0.00 in
21:59 61.1 °F 51.6 °F 29.99 in SE 1.0 mph 4.0 mph 71% 0.00 in
22:04 61.1 °F 51.6 °F 29.99 in SSE 3.0 mph 3.0 mph 71% 0.00 in
22:09 61.0 °F 51.5 °F 29.99 in South 1.0 mph 5.0 mph 71% 0.00 in
22:14 61.0 °F 51.5 °F 29.99 in Calm   5.0 mph 71% 0.00 in
22:19 61.0 °F 51.9 °F 29.99 in ESE 2.0 mph 3.0 mph 72% 0.00 in
22:24 60.9 °F 51.4 °F 29.99 in SSE 1.0 mph 4.0 mph 71% 0.00 in
22:29 61.0 °F 51.5 °F 29.99 in Calm   3.0 mph 71% 0.00 in
22:34 60.9 °F 51.8 °F 29.98 in Calm   3.0 mph 72% 0.00 in
22:39 60.8 °F 51.7 °F 29.98 in Calm     72% 0.00 in
22:44 60.8 °F 51.7 °F 29.98 in SSW 1.0 mph 6.0 mph 72% 0.00 in
22:49 60.8 °F 51.7 °F 29.98 in SSW 1.0 mph 6.0 mph 72% 0.00 in
22:54 60.7 °F 52.0 °F 29.98 in SSW 1.0 mph 4.0 mph 73% 0.00 in
22:59 60.7 °F 52.0 °F 29.98 in SSW 1.0 mph 6.0 mph 73% 0.00 in
23:04 60.6 °F 51.9 °F 29.98 in SSW 1.0 mph 6.0 mph 73% 0.00 in
23:09 60.6 °F 52.3 °F 29.98 in SSE 4.0 mph 5.0 mph 74% 0.00 in
23:15 60.5 °F 52.2 °F 29.98 in SSW 2.0 mph 8.0 mph 74% 0.00 in
23:24 60.3 °F 52.3 °F 29.98 in SSW 3.0 mph 7.0 mph 75% 0.00 in
23:29 59.8 °F 52.6 °F 29.98 in SSW 3.0 mph 7.0 mph 77% 0.00 in
23:39 58.7 °F 52.2 °F 29.98 in South 4.0 mph 6.0 mph 79% 0.01 in
23:44 58.3 °F 52.5 °F 29.97 in South 2.0 mph 6.0 mph 81% 0.01 in
23:49 58.0 °F 52.5 °F 29.97 in South 1.0 mph 6.0 mph 82% 0.01 in
23:54 57.8 °F 52.7 °F 29.97 in South 1.0 mph 4.0 mph 83% 0.01 in
23:59 57.6 °F 52.5 °F 29.96 in South 1.0 mph 4.0 mph 83% 0.01 in
Buffalo, New York, USA
Compliments of Weather Underground - 2.5 mb